Time;durP1;ratioP1;P1;durP2;ratioP2;P2;SDS_P1;SDS_P2;PMS_P1;PMS_P2;Temp;Humidity;BMP_temperature;BMP_pressure;BME280_temperature;BME280_humidity;BME280_pressure;Samples;Min_cycle;Max_cycle;Signal;HPM_P1;HPM_P2
2021/04/03 00:00:13;;;;;;;11.88;2.45;;;6.50;90.40;;;;;;5064143;28;20417;-39
2021/04/03 00:02:39;;;;;;;8.57;2.15;;;6.50;90.50;;;;;;5064717;28;20024;-39
2021/04/03 00:05:07;;;;;;;11.35;2.67;;;6.50;90.60;;;;;;5064574;28;20028;-40
2021/04/03 00:07:33;;;;;;;12.45;2.70;;;6.50;90.60;;;;;;5063733;28;20086;-35
2021/04/03 00:09:58;;;;;;;13.15;2.53;;;6.50;90.70;;;;;;5063934;28;20464;-38
2021/04/03 00:12:24;;;;;;;13.30;2.70;;;6.60;90.70;;;;;;5064239;28;20086;-39
2021/04/03 00:14:49;;;;;;;14.35;2.35;;;6.50;90.70;;;;;;5064067;28;20052;-37
2021/04/03 00:17:15;;;;;;;18.80;2.90;;;6.60;90.70;;;;;;5065021;28;20033;-37
2021/04/03 00:19:40;;;;;;;11.43;2.30;;;6.60;90.70;;;;;;5064754;28;20042;-38
2021/04/03 00:22:09;;;;;;;11.00;2.55;;;6.60;90.70;;;;;;5063886;28;20111;-38
2021/04/03 00:24:34;;;;;;;11.25;2.80;;;6.60;90.60;;;;;;5063854;28;20016;-39
2021/04/03 00:27:00;;;;;;;11.93;2.15;;;6.60;90.60;;;;;;5064506;28;20059;-38
2021/04/03 00:29:25;;;;;;;10.40;2.20;;;6.60;90.60;;;;;;5063546;28;20016;-38
2021/04/03 00:31:51;;;;;;;15.95;2.55;;;6.60;90.60;;;;;;5063931;28;20037;-37
2021/04/03 00:34:16;;;;;;;9.65;2.22;;;6.60;90.70;;;;;;5062259;28;20032;-38
2021/04/03 00:36:42;;;;;;;14.23;3.42;;;6.60;90.70;;;;;;5054318;28;20060;-37
2021/04/03 00:39:07;;;;;;;11.77;2.38;;;6.60;90.70;;;;;;5064040;28;20028;-37
2021/04/03 00:41:53;;;;;;;13.50;2.35;;;6.60;90.70;;;;;;5064585;28;20041;-39
2021/04/03 00:44:19;;;;;;;10.30;2.45;;;6.60;90.70;;;;;;5056551;28;20127;-39
2021/04/03 00:46:45;;;;;;;15.07;2.70;;;6.60;90.60;;;;;;5064412;28;20135;-36
2021/04/03 00:49:10;;;;;;;15.45;3.47;;;6.70;90.60;;;;;;5064218;28;20024;-38
2021/04/03 00:51:36;;;;;;;12.27;2.42;;;6.70;90.60;;;;;;5063496;28;20040;-37
2021/04/03 00:54:03;;;;;;;10.00;2.08;;;6.70;90.60;;;;;;5064790;28;20050;-39
2021/04/03 00:56:28;;;;;;;14.63;2.90;;;6.70;90.60;;;;;;5061128;28;20127;-38
2021/04/03 00:58:57;;;;;;;10.32;2.72;;;6.70;90.60;;;;;;5064211;28;20116;-39
2021/04/03 01:01:23;;;;;;;12.88;2.60;;;6.70;90.60;;;;;;5068216;28;20094;-38
2021/04/03 01:03:48;;;;;;;12.55;2.25;;;6.70;90.60;;;;;;5067566;28;20068;-36
2021/04/03 01:06:15;;;;;;;11.43;2.47;;;6.70;90.60;;;;;;5067741;28;20429;-37
2021/04/03 01:08:41;;;;;;;17.45;2.92;;;6.70;90.50;;;;;;5062386;28;20226;-38
2021/04/03 01:11:07;;;;;;;12.75;2.63;;;6.70;90.50;;;;;;5059737;28;20524;-36
2021/04/03 01:14:01;;;;;;;13.07;2.38;;;6.70;90.50;;;;;;5067870;28;20683;-39
2021/04/03 01:16:48;;;;;;;9.15;2.10;;;6.70;90.40;;;;;;5067619;28;20032;-38
2021/04/03 01:19:52;;;;;;;15.52;2.67;;;6.60;90.40;;;;;;5047547;28;20502;-39
2021/04/03 01:22:39;;;;;;;9.20;1.80;;;6.60;90.40;;;;;;5047316;28;20037;-36
2021/04/03 01:25:41;;;;;;;13.20;2.22;;;6.60;90.50;;;;;;5067142;28;20051;-39
2021/04/03 01:28:48;;;;;;;9.55;2.38;;;6.60;90.40;;;;;;5067723;28;20025;-39
2021/04/03 01:31:13;;;;;;;14.25;2.28;;;6.60;90.50;;;;;;5067911;28;20021;-38
2021/04/03 01:33:46;;;;;;;12.07;2.25;;;6.60;90.40;;;;;;5066868;28;20119;-38
2021/04/03 01:36:17;;;;;;;13.13;2.10;;;6.60;90.40;;;;;;5067296;28;20029;-38
2021/04/03 01:38:59;;;;;;;10.40;2.28;;;6.60;90.40;;;;;;5067032;28;20380;-38
2021/04/03 01:41:28;;;;;;;9.20;2.13;;;6.60;90.50;;;;;;5066894;28;20599;-38
2021/04/03 01:43:55;;;;;;;7.50;2.10;;;6.60;90.40;;;;;;5067393;28;20333;-36
2021/04/03 01:46:22;;;;;;;15.23;2.50;;;6.60;90.40;;;;;;5066663;28;20441;-38
2021/04/03 01:48:50;;;;;;;15.23;2.28;;;6.60;90.40;;;;;;5067119;28;20016;-40
2021/04/03 01:51:16;;;;;;;9.82;2.42;;;6.60;90.30;;;;;;5067001;28;20452;-36
2021/04/03 01:53:43;;;;;;;10.45;2.20;;;6.60;90.40;;;;;;5066365;28;20050;-38
2021/04/03 01:56:11;;;;;;;12.05;2.13;;;6.60;90.40;;;;;;5067241;28;20497;-38
2021/04/03 01:58:38;;;;;;;7.43;2.15;;;6.70;90.40;;;;;;5066442;28;20064;-41
2021/04/03 02:01:05;;;;;;;7.80;1.70;;;6.70;90.40;;;;;;5066142;28;20359;-39
2021/04/03 02:03:32;;;;;;;10.68;2.33;;;6.70;90.30;;;;;;5066707;28;20021;-38
2021/04/03 02:06:01;;;;;;;12.55;2.50;;;6.70;90.30;;;;;;5066408;28;20044;-39
2021/04/03 02:08:28;;;;;;;10.80;2.00;;;6.80;90.20;;;;;;5065948;28;20138;-38
2021/04/03 02:10:53;;;;;;;13.43;3.08;;;6.80;90.10;;;;;;5066347;28;20391;-39
2021/04/03 02:13:20;;;;;;;13.52;2.45;;;6.80;90.00;;;;;;5066534;28;20024;-38
2021/04/03 02:15:47;;;;;;;13.85;2.63;;;6.80;90.00;;;;;;5066381;28;20025;-36
2021/04/03 02:18:14;;;;;;;12.70;2.83;;;6.80;90.00;;;;;;5066911;28;20452;-38
2021/04/03 02:20:40;;;;;;;16.80;2.70;;;6.90;89.70;;;;;;5066226;28;20123;-36
2021/04/03 02:23:06;;;;;;;10.90;2.60;;;6.80;89.50;;;;;;5065967;28;20096;-39
2021/04/03 02:25:32;;;;;;;11.75;2.30;;;6.80;89.50;;;;;;5066509;28;20147;-36
2021/04/03 02:28:04;;;;;;;14.38;2.75;;;6.80;89.30;;;;;;5065599;28;20483;-38
2021/04/03 02:30:30;;;;;;;14.40;2.58;;;6.80;89.20;;;;;;5066438;28;20024;-36
2021/04/03 02:32:56;;;;;;;8.90;2.13;;;6.80;89.20;;;;;;5066205;28;20036;-37
2021/04/03 02:35:24;;;;;;;9.23;2.35;;;6.80;88.80;;;;;;5066171;28;20412;-39
2021/04/03 02:37:57;;;;;;;11.40;2.55;;;6.80;88.60;;;;;;5065998;28;20707;-34
2021/04/03 02:40:26;;;;;;;9.38;1.83;;;6.70;88.60;;;;;;5066679;28;20036;-39
2021/04/03 02:43:10;;;;;;;11.70;2.20;;;6.70;88.60;;;;;;5065788;28;20096;-39
2021/04/03 02:45:41;;;;;;;12.85;2.40;;;6.70;88.60;;;;;;5063801;28;20452;-39
2021/04/03 02:48:17;;;;;;;12.98;2.50;;;6.70;88.20;;;;;;5065523;28;20146;-38
2021/04/03 02:50:44;;;;;;;15.70;3.47;;;6.70;88.40;;;;;;5065404;28;20026;-39
2021/04/03 02:53:15;;;;;;;18.83;3.20;;;6.70;88.20;;;;;;5065969;28;20024;-39
2021/04/03 02:55:48;;;;;;;15.27;3.38;;;6.70;88.10;;;;;;5065470;28;20115;-37
2021/04/03 02:58:18;;;;;;;16.40;3.33;;;6.60;88.10;;;;;;5065574;28;20036;-41
2021/04/03 03:00:50;;;;;;;11.75;2.50;;;6.60;88.20;;;;;;5064136;28;20124;-40
2021/04/03 03:03:15;;;;;;;14.15;2.83;;;6.60;88.40;;;;;;5065572;28;20028;-36
2021/04/03 03:05:43;;;;;;;11.35;2.60;;;6.60;88.40;;;;;;5065206;28;20516;-38
2021/04/03 03:08:11;;;;;;;12.52;2.47;;;6.60;88.60;;;;;;5063579;28;20079;-35
2021/04/03 03:10:38;;;;;;;14.60;3.40;;;6.50;88.60;;;;;;5061764;28;20020;-37
2021/04/03 03:13:05;;;;;;;14.68;2.70;;;6.50;88.60;;;;;;5065113;28;20107;-39
2021/04/03 03:15:31;;;;;;;17.50;3.22;;;6.50;88.60;;;;;;5064691;28;20021;-38
2021/04/03 03:17:58;;;;;;;12.68;3.05;;;6.50;88.70;;;;;;5064954;28;20017;-39
2021/04/03 03:20:26;;;;;;;14.55;3.40;;;6.40;88.80;;;;;;5065618;28;20055;-38
2021/04/03 03:22:51;;;;;;;16.45;3.10;;;6.40;88.90;;;;;;5064498;28;20021;-37
2021/04/03 03:25:17;;;;;;;14.23;2.80;;;6.30;89.10;;;;;;5064551;28;20019;-38
2021/04/03 03:27:45;;;;;;;15.40;3.90;;;6.30;89.20;;;;;;5065435;28;20398;-39
2021/04/03 03:30:18;;;;;;;16.05;3.92;;;6.20;89.40;;;;;;5064641;28;20039;-39
2021/04/03 03:32:43;;;;;;;10.90;2.35;;;6.20;89.80;;;;;;5064474;28;20272;-38
2021/04/03 03:35:16;;;;;;;23.55;3.65;;;6.10;89.90;;;;;;5064657;28;20032;-38
2021/04/03 03:37:43;;;;;;;14.60;3.03;;;6.10;90.00;;;;;;5065419;28;20035;-37
2021/04/03 03:40:11;;;;;;;15.23;3.20;;;6.00;90.10;;;;;;5063889;28;20526;-37
2021/04/03 03:42:37;;;;;;;20.27;3.10;;;6.00;90.30;;;;;;5064673;28;20031;-38
2021/04/03 03:45:05;;;;;;;23.13;3.58;;;6.00;90.50;;;;;;5064743;28;20020;-36
2021/04/03 03:47:31;;;;;;;22.23;4.20;;;5.90;90.70;;;;;;5064770;28;20025;-39
2021/04/03 03:49:57;;;;;;;24.70;4.72;;;5.90;90.80;;;;;;5064997;28;20575;-38
2021/04/03 03:52:22;;;;;;;23.83;4.03;;;5.90;90.90;;;;;;5063387;28;20060;-38
2021/04/03 03:54:48;;;;;;;19.15;3.22;;;5.80;91.10;;;;;;5056852;28;20117;-39
2021/04/03 03:57:13;;;;;;;22.75;3.90;;;5.80;91.40;;;;;;5063618;28;20681;-38
2021/04/03 03:59:39;;;;;;;19.83;3.80;;;5.80;91.20;;;;;;5063104;28;20060;-39
2021/04/03 04:02:05;;;;;;;15.05;3.58;;;5.70;91.30;;;;;;5063403;28;20757;-37
2021/04/03 04:04:30;;;;;;;21.73;3.72;;;5.70;91.40;;;;;;5063648;28;20021;-37
2021/04/03 04:06:56;;;;;;;20.13;4.07;;;5.70;91.50;;;;;;5062740;28;20130;-38
2021/04/03 04:09:21;;;;;;;23.15;4.35;;;5.60;91.50;;;;;;5064464;28;20024;-38
2021/04/03 04:11:47;;;;;;;25.80;3.72;;;5.60;91.70;;;;;;5064401;28;20031;-40
2021/04/03 04:14:13;;;;;;;19.40;3.58;;;5.50;91.80;;;;;;5061193;28;20036;-39
2021/04/03 04:16:38;;;;;;;21.33;3.55;;;5.50;91.90;;;;;;5056801;28;20059;-39
2021/04/03 04:19:04;;;;;;;18.98;3.45;;;5.50;91.90;;;;;;5062466;28;20482;-38
2021/04/03 04:21:30;;;;;;;30.35;4.28;;;5.50;92.00;;;;;;5063626;28;20327;-39
2021/04/03 04:23:55;;;;;;;22.52;4.30;;;5.50;92.20;;;;;;5063949;28;20029;-38
2021/04/03 04:26:21;;;;;;;25.15;4.03;;;5.40;92.20;;;;;;5064546;28;20059;-39
2021/04/03 04:28:47;;;;;;;36.33;5.35;;;5.40;92.50;;;;;;5063249;28;20025;-38
2021/04/03 04:31:19;;;;;;;24.90;4.38;;;5.40;92.40;;;;;;5064754;28;20032;-39
2021/04/03 04:33:44;;;;;;;30.30;5.10;;;5.30;92.50;;;;;;5063558;28;20042;-38
2021/04/03 04:36:10;;;;;;;28.10;5.25;;;5.30;92.70;;;;;;5064325;28;20532;-38
2021/04/03 04:38:35;;;;;;;27.55;4.05;;;5.30;92.90;;;;;;5062759;28;20085;-38
2021/04/03 04:41:01;;;;;;;26.70;4.90;;;5.20;92.90;;;;;;5057265;28;20032;-38
2021/04/03 04:43:27;;;;;;;21.63;5.00;;;5.30;93.10;;;;;;5063444;28;20013;-38
2021/04/03 04:45:53;;;;;;;33.53;4.80;;;5.20;93.20;;;;;;5064034;28;20069;-39
2021/04/03 04:48:19;;;;;;;28.75;4.75;;;5.20;93.20;;;;;;5064109;28;20032;-36
2021/04/03 04:50:45;;;;;;;26.52;4.40;;;5.20;93.30;;;;;;5063507;28;20081;-37
2021/04/03 04:53:10;;;;;;;27.42;4.07;;;5.10;93.40;;;;;;5063079;28;20375;-42
2021/04/03 04:55:36;;;;;;;24.90;4.05;;;5.10;93.50;;;;;;5056326;28;20032;-38
2021/04/03 04:58:01;;;;;;;27.23;6.38;;;5.00;93.60;;;;;;5058823;28;20066;-38
2021/04/03 05:00:27;;;;;;;23.35;4.85;;;5.00;93.60;;;;;;5064446;28;20028;-39
2021/04/03 05:02:53;;;;;;;28.98;5.13;;;5.00;93.70;;;;;;5063430;28;20446;-39
2021/04/03 05:05:18;;;;;;;37.03;4.70;;;5.00;93.80;;;;;;5064553;28;20051;-38
2021/04/03 05:07:44;;;;;;;22.13;4.35;;;4.90;93.80;;;;;;5064161;28;20051;-38
2021/04/03 05:10:13;;;;;;;27.23;4.25;;;4.90;93.80;;;;;;5057835;28;20013;-42
2021/04/03 05:12:39;;;;;;;20.65;4.45;;;4.90;93.90;;;;;;5064507;28;20024;-38
2021/04/03 05:15:06;;;;;;;32.92;5.28;;;4.90;94.00;;;;;;5064083;28;20043;-38
2021/04/03 05:17:31;;;;;;;27.30;5.63;;;4.90;94.20;;;;;;5063250;28;20261;-38
2021/04/03 05:19:57;;;;;;;29.27;5.00;;;4.90;94.20;;;;;;5063739;28;20195;-35
2021/04/03 05:22:22;;;;;;;28.20;5.38;;;4.80;94.30;;;;;;5059487;28;20145;-38
2021/04/03 05:24:48;;;;;;;27.38;5.15;;;4.90;94.40;;;;;;5059564;28;20017;-37
2021/04/03 05:27:13;;;;;;;26.13;4.80;;;4.90;94.40;;;;;;5064239;28;20044;-34
2021/04/03 05:29:39;;;;;;;26.98;5.70;;;4.80;94.50;;;;;;5063009;28;20031;-39
2021/04/03 05:32:05;;;;;;;39.40;5.95;;;4.90;94.60;;;;;;5052775;28;20108;-39
2021/04/03 05:34:31;;;;;;;25.08;4.63;;;4.90;94.60;;;;;;5059130;28;20020;-40
2021/04/03 05:36:57;;;;;;;31.33;6.93;;;4.90;94.70;;;;;;5063450;28;20082;-37
2021/04/03 05:39:22;;;;;;;33.05;6.53;;;5.00;94.60;;;;;;5061997;28;20185;-39
2021/04/03 05:41:48;;;;;;;36.35;5.43;;;5.10;94.60;;;;;;5058610;28;20040;-34
2021/04/03 05:44:14;;;;;;;39.42;5.80;;;5.10;94.60;;;;;;5064292;28;20044;-42
2021/04/03 05:46:42;;;;;;;28.38;6.78;;;5.20;94.50;;;;;;5065802;28;20291;-44
2021/04/03 05:49:11;;;;;;;33.55;5.97;;;5.20;94.50;;;;;;5066836;28;20028;-38
2021/04/03 05:51:38;;;;;;;41.58;5.30;;;5.30;94.50;;;;;;5062400;28;20067;-37
2021/04/03 05:54:05;;;;;;;35.60;5.70;;;5.30;94.40;;;;;;5058598;28;20059;-39
2021/04/03 05:56:30;;;;;;;33.47;5.93;;;5.40;94.50;;;;;;5066649;28;20076;-39
2021/04/03 05:58:56;;;;;;;43.95;6.15;;;5.50;94.40;;;;;;5066397;28;20060;-39
2021/04/03 06:01:22;;;;;;;40.50;5.60;;;5.50;94.40;;;;;;5058719;28;20041;-44
2021/04/03 06:03:48;;;;;;;40.38;6.30;;;5.50;94.40;;;;;;5055900;28;20017;-38
2021/04/03 06:06:14;;;;;;;41.17;7.25;;;5.60;94.40;;;;;;5061097;28;20440;-39
2021/04/03 06:08:42;;;;;;;37.97;5.85;;;5.70;94.40;;;;;;5066412;28;20115;-39
2021/04/03 06:11:09;;;;;;;34.00;6.47;;;5.70;94.40;;;;;;5066595;28;20031;-39
2021/04/03 06:13:35;;;;;;;51.78;6.90;;;5.70;94.30;;;;;;5066595;28;20134;-41
2021/04/03 06:16:00;;;;;;;41.50;6.55;;;5.70;94.40;;;;;;5066502;28;20028;-37
2021/04/03 06:18:26;;;;;;;33.72;5.53;;;5.80;94.40;;;;;;5067681;28;20029;-39
2021/04/03 06:21:07;;;;;;;48.35;6.63;;;5.80;94.30;;;;;;5070539;28;20066;-39
2021/04/03 06:23:35;;;;;;;45.72;6.85;;;5.80;94.30;;;;;;5066998;28;20353;-38
2021/04/03 06:26:01;;;;;;;42.42;5.65;;;5.90;94.40;;;;;;5064814;28;20036;-39
2021/04/03 06:28:28;;;;;;;40.45;8.57;;;5.90;94.40;;;;;;5065379;28;20021;-40
2021/04/03 06:30:58;;;;;;;37.78;6.78;;;5.90;94.40;;;;;;5063859;28;20066;-39
2021/04/03 06:33:24;;;;;;;38.20;6.03;;;5.90;94.30;;;;;;5062799;28;20069;-38
2021/04/03 06:36:07;;;;;;;39.15;6.65;;;6.00;94.30;;;;;;5065447;28;20028;-37
2021/04/03 06:38:33;;;;;;;37.92;6.20;;;6.00;94.30;;;;;;5066617;28;20024;-38
2021/04/03 06:41:20;;;;;;;37.40;7.20;;;6.10;94.40;;;;;;5065656;28;20033;-39
2021/04/03 06:44:07;;;;;;;40.47;6.57;;;6.20;94.40;;;;;;5055009;28;20028;-37
2021/04/03 06:46:34;;;;;;;37.78;6.00;;;6.20;94.30;;;;;;5061403;28;20445;-39
2021/04/03 06:49:01;;;;;;;31.88;5.97;;;6.30;94.20;;;;;;5064935;28;20032;-38
2021/04/03 06:51:27;;;;;;;35.90;5.28;;;6.30;94.20;;;;;;5058379;28;20448;-37
2021/04/03 06:53:55;;;;;;;38.88;7.00;;;6.40;94.20;;;;;;5065694;28;20115;-39
2021/04/03 06:56:22;;;;;;;38.17;6.55;;;6.50;94.10;;;;;;5064377;28;20047;-38
2021/04/03 06:58:57;;;;;;;35.20;5.55;;;6.50;94.00;;;;;;5054863;28;20016;-39
2021/04/03 07:01:43;;;;;;;34.15;6.13;;;6.50;93.90;;;;;;5056124;28;20044;-40
2021/04/03 07:04:11;;;;;;;30.85;5.90;;;6.60;93.90;;;;;;5065333;28;20082;-40
2021/04/03 07:06:37;;;;;;;39.05;6.63;;;6.60;93.70;;;;;;5065092;28;20063;-39
2021/04/03 07:09:08;;;;;;;35.53;7.40;;;6.70;93.50;;;;;;5062997;28;20099;-38
2021/04/03 07:11:35;;;;;;;40.42;8.20;;;6.70;93.50;;;;;;5054090;28;20070;-38
2021/04/03 07:14:02;;;;;;;45.35;7.18;;;6.80;93.40;;;;;;5049138;28;20100;-37
2021/04/03 07:16:29;;;;;;;32.25;5.45;;;6.80;93.20;;;;;;5061281;28;20052;-39
2021/04/03 07:18:55;;;;;;;29.55;5.68;;;6.80;93.20;;;;;;5063320;28;20039;-38
2021/04/03 07:21:21;;;;;;;32.88;6.75;;;6.80;93.30;;;;;;5064269;28;20561;-38
2021/04/03 07:23:49;;;;;;;31.92;5.55;;;6.90;93.20;;;;;;5063792;28;20025;-38
2021/04/03 07:26:17;;;;;;;39.55;6.10;;;6.90;93.10;;;;;;5065618;28;20046;-39
2021/04/03 07:28:43;;;;;;;36.20;6.70;;;7.00;93.10;;;;;;5065231;28;20028;-38
2021/04/03 07:31:09;;;;;;;38.55;7.05;;;7.00;92.90;;;;;;5065381;28;20012;-39
2021/04/03 07:33:49;;;;;;;37.70;6.38;;;7.10;92.80;;;;;;5064457;28;20044;-38
2021/04/03 07:36:32;;;;;;;36.03;6.15;;;7.10;92.60;;;;;;5064764;28;20788;-37
2021/04/03 07:38:57;;;;;;;31.70;5.40;;;7.10;92.60;;;;;;5064177;28;20062;-36
2021/04/03 07:41:24;;;;;;;31.42;5.65;;;7.20;92.60;;;;;;5064733;28;20059;-39
2021/04/03 07:43:50;;;;;;;39.85;6.47;;;7.20;92.50;;;;;;5064364;28;20678;-39
2021/04/03 07:46:37;;;;;;;27.63;5.25;;;7.30;92.50;;;;;;5062879;28;20568;-39
2021/04/03 07:49:02;;;;;;;28.08;6.38;;;7.40;92.30;;;;;;5064892;28;20020;-35
2021/04/03 07:51:31;;;;;;;30.10;6.00;;;7.40;92.10;;;;;;5064071;28;20085;-38
2021/04/03 07:54:01;;;;;;;24.50;6.00;;;7.50;92.00;;;;;;5064402;28;20048;-38
2021/04/03 07:56:47;;;;;;;31.85;5.90;;;7.50;91.90;;;;;;5064193;28;20122;-39
2021/04/03 07:59:13;;;;;;;25.33;5.15;;;7.50;91.70;;;;;;5063732;28;20718;-37
2021/04/03 08:01:39;;;;;;;25.45;5.72;;;7.50;91.70;;;;;;5064187;28;20072;-39
2021/04/03 08:04:07;;;;;;;27.23;5.47;;;7.70;91.70;;;;;;5064188;28;20028;-36
2021/04/03 08:06:36;;;;;;;24.02;4.53;;;7.80;91.60;;;;;;5051966;28;20052;-38
2021/04/03 08:09:13;;;;;;;25.95;5.50;;;7.90;91.50;;;;;;5064254;28;20021;-38
2021/04/03 08:11:41;;;;;;;22.30;5.18;;;8.00;91.40;;;;;;5063055;28;20036;-37
2021/04/03 08:14:14;;;;;;;21.73;4.65;;;8.10;91.10;;;;;;5064101;28;20020;-38
2021/04/03 08:16:41;;;;;;;24.90;4.90;;;8.20;91.00;;;;;;5064634;28;20028;-38
2021/04/03 08:19:07;;;;;;;22.38;4.88;;;8.30;90.60;;;;;;5063701;28;20372;-38
2021/04/03 08:21:47;;;;;;;27.20;5.45;;;8.30;90.30;;;;;;5064022;28;20051;-37
2021/04/03 08:24:18;;;;;;;33.60;6.00;;;8.30;90.40;;;;;;5064492;28;20408;-38
2021/04/03 08:26:45;;;;;;;25.52;4.88;;;8.30;90.50;;;;;;5063003;28;20319;-35
2021/04/03 08:29:28;;;;;;;22.77;5.32;;;8.40;90.40;;;;;;5064451;28;20052;-36
2021/04/03 08:31:55;;;;;;;19.50;5.10;;;8.40;90.20;;;;;;5064367;28;20753;-37
2021/04/03 08:34:22;;;;;;;30.50;5.43;;;8.40;90.00;;;;;;5064536;28;20108;-36
2021/04/03 08:36:47;;;;;;;24.20;5.78;;;8.40;89.80;;;;;;5064657;28;20039;-39
2021/04/03 08:39:16;;;;;;;29.15;5.32;;;8.40;89.90;;;;;;5064957;28;20578;-39
2021/04/03 08:41:43;;;;;;;25.67;5.28;;;8.40;89.70;;;;;;5064169;28;20123;-39
2021/04/03 08:44:20;;;;;;;20.00;5.15;;;8.30;89.80;;;;;;5064682;28;20410;-40
2021/04/03 08:46:48;;;;;;;23.88;4.50;;;8.30;89.90;;;;;;5064865;28;20495;-39
2021/04/03 08:49:22;;;;;;;24.05;5.70;;;8.30;90.00;;;;;;5064191;28;20468;-39
2021/04/03 08:51:48;;;;;;;26.80;5.43;;;8.30;90.00;;;;;;5064414;28;20032;-39
2021/04/03 08:54:13;;;;;;;32.80;5.65;;;8.40;89.30;;;;;;5064946;28;20364;-38
2021/04/03 08:56:39;;;;;;;27.10;5.05;;;8.40;89.40;;;;;;5063906;28;20031;-38
2021/04/03 08:59:15;;;;;;;22.98;4.32;;;8.40;89.90;;;;;;5065053;28;20043;-39
2021/04/03 09:01:45;;;;;;;19.85;4.50;;;8.40;89.30;;;;;;5063874;28;20040;-37
2021/04/03 09:04:11;;;;;;;24.52;5.10;;;8.40;89.60;;;;;;5064329;28;20340;-41
2021/04/03 09:06:39;;;;;;;26.05;4.82;;;8.50;89.60;;;;;;5064039;28;20056;-43
2021/04/03 09:09:15;;;;;;;23.15;4.75;;;8.60;89.50;;;;;;5064119;28;20044;-38
2021/04/03 09:12:12;;;;;;;30.23;5.20;;;8.80;88.80;;;;;;5058510;28;20051;-37
2021/04/03 09:14:49;;;;;;;19.02;4.28;;;8.90;88.40;;;;;;5063565;28;20163;-39
2021/04/03 09:17:23;;;;;;;24.15;5.30;;;8.90;88.20;;;;;;5054654;28;20110;-35
2021/04/03 09:19:49;;;;;;;19.20;4.78;;;9.10;87.20;;;;;;5063922;28;20024;-40
2021/04/03 09:22:18;;;;;;;19.48;4.50;;;9.20;86.90;;;;;;5067532;28;20067;-42
2021/04/03 09:24:58;;;;;;;18.90;4.50;;;9.20;86.30;;;;;;5067662;28;20028;-37
2021/04/03 09:27:25;;;;;;;26.05;5.25;;;9.30;85.70;;;;;;5067907;28;20036;-40
2021/04/03 09:30:05;;;;;;;26.75;5.85;;;9.30;85.20;;;;;;5067987;28;20071;-47
2021/04/03 09:32:42;;;;;;;19.55;4.70;;;9.30;84.40;;;;;;5067977;28;20215;-38
2021/04/03 09:35:13;;;;;;;15.65;4.55;;;9.30;84.60;;;;;;5067926;28;20028;-40
2021/04/03 09:37:38;;;;;;;18.70;4.53;;;9.30;84.70;;;;;;5066135;28;20152;-40
2021/04/03 09:40:07;;;;;;;19.55;5.35;;;9.30;84.40;;;;;;5061235;28;20160;-42
2021/04/03 09:42:32;;;;;;;29.02;6.32;;;9.20;84.00;;;;;;5067052;28;20025;-40
2021/04/03 09:45:00;;;;;;;29.88;5.05;;;9.10;84.10;;;;;;5066622;28;20488;-40
2021/04/03 09:47:27;;;;;;;26.38;5.30;;;9.10;84.30;;;;;;5067530;28;20135;-37
2021/04/03 09:49:53;;;;;;;15.40;4.30;;;9.00;84.40;;;;;;5067616;28;20055;-38
2021/04/03 09:52:19;;;;;;;15.50;4.30;;;9.00;84.90;;;;;;5067236;28;20060;-37
2021/04/03 09:54:45;;;;;;;15.95;4.03;;;9.00;84.10;;;;;;5067431;28;20035;-41
2021/04/03 09:57:12;;;;;;;16.48;4.63;;;9.00;84.50;;;;;;5067132;28;20451;-38
2021/04/03 09:59:39;;;;;;;20.95;4.45;;;9.00;84.20;;;;;;5066676;28;20578;-39
2021/04/03 10:02:05;;;;;;;26.38;5.63;;;9.10;84.00;;;;;;5059468;28;20037;-45
2021/04/03 10:04:31;;;;;;;26.98;5.82;;;9.10;83.70;;;;;;5067152;28;20433;-37
2021/04/03 10:06:57;;;;;;;11.80;3.67;;;9.20;83.60;;;;;;5059364;28;20033;-38
2021/04/03 10:09:23;;;;;;;17.70;4.18;;;9.30;83.80;;;;;;5061398;28;20549;-38
2021/04/03 10:11:53;;;;;;;20.30;4.20;;;9.50;83.50;;;;;;5066860;28;20024;-39
2021/04/03 10:14:18;;;;;;;23.27;4.78;;;9.60;83.80;;;;;;5066998;28;20012;-37
2021/04/03 10:16:45;;;;;;;14.07;4.05;;;9.80;82.40;;;;;;5067224;28;20024;-38
2021/04/03 10:19:11;;;;;;;15.40;4.03;;;9.80;81.30;;;;;;5066423;28;20158;-37
2021/04/03 10:21:36;;;;;;;15.95;3.22;;;9.90;81.40;;;;;;5067195;28;20036;-38
2021/04/03 10:24:02;;;;;;;16.90;4.30;;;10.00;82.00;;;;;;5066530;28;20020;-37
2021/04/03 10:26:30;;;;;;;24.27;5.03;;;10.10;80.10;;;;;;5066592;28;20036;-38
2021/04/03 10:28:56;;;;;;;19.85;4.72;;;10.10;80.70;;;;;;5066704;28;20024;-39
2021/04/03 10:31:22;;;;;;;20.98;4.40;;;10.00;80.70;;;;;;5066420;28;20480;-39
2021/04/03 10:33:48;;;;;;;21.35;4.20;;;10.00;81.20;;;;;;5065654;28;20025;-38
2021/04/03 10:36:15;;;;;;;21.73;4.15;;;10.10;81.20;;;;;;5067070;28;20124;-43
2021/04/03 10:38:44;;;;;;;19.20;4.13;;;10.20;80.60;;;;;;5066486;28;20029;-38
2021/04/03 10:41:12;;;;;;;18.77;3.90;;;10.30;79.70;;;;;;5065014;28;20037;-38
2021/04/03 10:43:41;;;;;;;21.98;4.78;;;10.50;79.70;;;;;;5066754;28;20099;-38
2021/04/03 10:46:09;;;;;;;17.98;4.63;;;10.60;78.40;;;;;;5066398;28;20031;-36
2021/04/03 10:48:36;;;;;;;14.63;3.80;;;10.60;78.10;;;;;;5063613;28;20039;-39
2021/04/03 10:51:03;;;;;;;24.40;4.85;;;10.60;78.00;;;;;;5066478;28;20032;-38
2021/04/03 10:53:28;;;;;;;18.52;4.80;;;10.60;77.80;;;;;;5060577;28;20017;-37
2021/04/03 10:55:54;;;;;;;19.55;4.20;;;10.50;76.40;;;;;;5060247;28;20537;-38
2021/04/03 10:58:20;;;;;;;20.83;4.18;;;10.40;76.80;;;;;;5066906;28;20479;-39
2021/04/03 11:00:45;;;;;;;13.65;3.42;;;10.40;77.60;;;;;;5066168;28;20036;-39
2021/04/03 11:03:11;;;;;;;17.23;3.97;;;10.40;77.80;;;;;;5066246;28;20115;-39
2021/04/03 11:05:37;;;;;;;20.42;4.45;;;10.50;76.40;;;;;;5066032;28;20109;-38
2021/04/03 11:08:05;;;;;;;18.60;4.72;;;10.60;76.00;;;;;;5065161;28;20067;-38
2021/04/03 11:10:31;;;;;;;16.30;4.07;;;10.70;76.20;;;;;;5058570;28;20103;-37
2021/04/03 11:12:58;;;;;;;15.85;4.22;;;10.70;75.80;;;;;;5062087;28;20105;-40
2021/04/03 11:15:24;;;;;;;15.98;3.90;;;10.70;76.40;;;;;;5061310;28;20078;-37
2021/04/03 11:17:51;;;;;;;15.25;4.15;;;10.70;76.10;;;;;;5065349;28;20033;-38
2021/04/03 11:20:18;;;;;;;12.68;3.80;;;10.70;76.50;;;;;;5065341;28;20028;-38
2021/04/03 11:22:45;;;;;;;14.32;4.00;;;10.80;76.10;;;;;;5058187;28;20079;-39
2021/04/03 11:25:11;;;;;;;12.88;4.15;;;11.00;74.90;;;;;;5047297;28;20103;-38
2021/04/03 11:27:36;;;;;;;13.43;3.80;;;11.10;74.20;;;;;;5064910;28;20059;-38
2021/04/03 11:30:13;;;;;;;14.30;4.05;;;11.20;74.10;;;;;;5065089;28;20052;-38
2021/04/03 11:32:47;;;;;;;15.40;3.58;;;11.30;74.30;;;;;;5065615;28;20025;-39
2021/04/03 11:35:14;;;;;;;15.60;3.72;;;11.40;74.20;;;;;;5065517;28;20069;-43
2021/04/03 11:37:41;;;;;;;16.85;4.10;;;11.40;73.50;;;;;;5064288;28;20059;-40
2021/04/03 11:40:08;;;;;;;13.10;3.50;;;11.40;71.70;;;;;;5061187;28;20064;-37
2021/04/03 11:42:37;;;;;;;14.30;3.78;;;11.40;70.60;;;;;;5063196;28;20033;-38
2021/04/03 11:45:07;;;;;;;13.23;3.67;;;11.30;70.60;;;;;;5064294;28;20021;-38
2021/04/03 11:47:34;;;;;;;19.17;3.92;;;11.30;71.30;;;;;;5065319;28;20089;-43
2021/04/03 11:50:00;;;;;;;11.55;3.90;;;11.30;72.00;;;;;;5065272;28;20051;-38
2021/04/03 11:52:28;;;;;;;18.08;3.47;;;11.40;72.20;;;;;;5064552;28;20392;-36
2021/04/03 11:54:54;;;;;;;15.63;3.85;;;11.50;71.10;;;;;;5065328;28;20025;-37
2021/04/03 11:57:22;;;;;;;20.77;4.70;;;11.50;70.70;;;;;;5064911;28;20407;-40
2021/04/03 11:59:48;;;;;;;12.13;3.80;;;11.50;70.40;;;;;;5064612;28;20111;-39
2021/04/03 12:02:14;;;;;;;12.75;3.40;;;11.40;70.70;;;;;;5065820;28;20587;-36
2021/04/03 12:04:45;;;;;;;9.13;3.47;;;11.50;70.90;;;;;;5064910;28;20028;-41
2021/04/03 12:07:11;;;;;;;14.73;4.22;;;11.50;70.80;;;;;;5064750;28;20052;-42
2021/04/03 12:09:40;;;;;;;16.73;3.70;;;11.70;71.10;;;;;;5065235;28;20152;-40
2021/04/03 12:12:06;;;;;;;16.95;4.40;;;11.80;71.00;;;;;;5064953;28;20782;-39
2021/04/03 12:14:32;;;;;;;17.50;3.95;;;11.90;71.20;;;;;;5064472;28;20093;-37
2021/04/03 12:16:58;;;;;;;17.08;4.10;;;12.00;69.90;;;;;;5065169;28;20511;-38
2021/04/03 12:19:24;;;;;;;12.40;3.90;;;11.90;68.50;;;;;;5062344;28;20060;-40
2021/04/03 12:21:49;;;;;;;17.50;4.38;;;11.90;68.90;;;;;;5062898;28;20044;-40
2021/04/03 12:24:15;;;;;;;13.65;4.00;;;11.90;68.20;;;;;;5065030;28;20199;-39
2021/04/03 12:26:40;;;;;;;14.25;3.70;;;11.90;68.50;;;;;;5063957;28;20535;-43
2021/04/03 12:29:08;;;;;;;18.92;4.10;;;11.90;68.40;;;;;;5064449;28;20137;-39
2021/04/03 12:31:34;;;;;;;17.15;3.80;;;12.10;67.80;;;;;;5064969;28;20031;-39
2021/04/03 12:33:59;;;;;;;18.02;4.00;;;12.10;68.20;;;;;;5063454;28;20472;-39
2021/04/03 12:36:28;;;;;;;12.00;3.88;;;12.20;68.20;;;;;;5064392;28;20047;-37
2021/04/03 12:38:53;;;;;;;12.63;3.58;;;12.20;68.50;;;;;;5064133;28;20150;-40
2021/04/03 12:41:19;;;;;;;10.60;3.17;;;12.10;68.50;;;;;;5064165;28;20240;-40
2021/04/03 12:43:47;;;;;;;12.73;3.08;;;12.00;68.90;;;;;;5064580;28;20910;-39
2021/04/03 12:46:13;;;;;;;16.20;4.20;;;12.00;69.70;;;;;;5064617;28;20115;-37
2021/04/03 12:48:39;;;;;;;14.20;3.97;;;12.10;68.70;;;;;;5063867;28;20238;-39
2021/04/03 12:51:05;;;;;;;15.40;3.85;;;12.10;68.60;;;;;;5064625;28;20024;-39